Aviation Digital Data Service (ADDS)

Output produced by METARs form (1152 UTC 24 January 2021)
found at http://www.aviationweather.gov/metar/data/
 
ESTA 241120Z AUTO 11004KT 4300 BR BKN006/// OVC049/// 03/02 Q0996